createdAt,value
2019-02-27T00:00:20.202Z,15.03
2019-02-27T00:02:48.727Z,24.43
2019-02-27T00:05:17.214Z,22.03
2019-02-27T00:07:45.650Z,22.00
2019-02-27T00:10:14.271Z,25.23
2019-02-27T00:12:42.750Z,25.97
2019-02-27T00:15:11.183Z,25.53
2019-02-27T00:17:39.668Z,25.60
2019-02-27T00:20:08.189Z,29.10
2019-02-27T00:22:36.623Z,25.87
2019-02-27T00:25:05.177Z,23.83
2019-02-27T00:27:33.686Z,23.90
2019-02-27T00:30:04.826Z,23.17
2019-02-27T00:32:32.191Z,23.07
2019-02-27T00:35:00.626Z,22.97
2019-02-27T00:40:05.243Z,19.93
2019-02-27T00:42:33.570Z,27.53
2019-02-27T00:45:00.752Z,23.80
2019-02-27T00:47:29.182Z,17.20
2019-02-27T00:49:57.637Z,20.27
2019-02-27T00:52:26.053Z,24.10
2019-02-27T00:54:54.501Z,33.23
2019-02-27T00:57:22.991Z,26.93
2019-02-27T00:59:51.459Z,32.90
2019-02-27T01:02:20.758Z,32.87
2019-02-27T01:04:49.302Z,33.77
2019-02-27T01:07:20.605Z,31.43
2019-02-27T01:09:47.877Z,24.80
2019-02-27T01:12:16.366Z,30.13
2019-02-27T01:14:44.794Z,27.07
2019-02-27T01:17:13.201Z,29.60
2019-02-27T01:19:42.854Z,29.10
2019-02-27T01:22:11.542Z,24.60
2019-02-27T01:24:40.030Z,25.70
2019-02-27T01:27:08.530Z,26.17
2019-02-27T01:29:37.019Z,26.30
2019-02-27T01:32:07.123Z,26.97
2019-02-27T01:34:35.650Z,26.20
2019-02-27T01:37:04.092Z,27.60
2019-02-27T01:39:32.580Z,30.20
2019-02-27T01:42:01.010Z,23.87
2019-02-27T01:44:29.473Z,26.10
2019-02-27T01:47:01.525Z,28.60
2019-02-27T01:49:27.998Z,28.00
2019-02-27T01:51:59.100Z,22.33
2019-02-27T01:54:26.569Z,28.03
2019-02-27T01:56:55.007Z,23.27
2019-02-27T01:59:23.417Z,24.40
2019-02-27T02:01:51.871Z,28.23
2019-02-27T02:04:20.877Z,25.13
2019-02-27T02:06:49.302Z,23.53
2019-02-27T02:09:35.071Z,25.80
2019-02-27T02:12:12.442Z,26.67
2019-02-27T02:14:54.345Z,27.83
2019-02-27T02:17:41.028Z,32.03
2019-02-27T02:20:14.407Z,31.57
2019-02-27T02:22:55.087Z,32.30
2019-02-27T02:25:35.575Z,27.80
2019-02-27T02:28:14.685Z,31.77
2019-02-27T02:31:05.036Z,27.93
2019-02-27T02:33:54.442Z,30.00
2019-02-27T02:36:35.324Z,29.97
2019-02-27T02:39:17.658Z,31.47
2019-02-27T02:41:54.776Z,37.20
2019-02-27T02:44:29.047Z,28.70
2019-02-27T02:47:20.048Z,28.57
2019-02-27T02:50:03.807Z,32.43
2019-02-27T02:52:56.486Z,24.50
2019-02-27T02:55:49.071Z,24.57
2019-02-27T02:58:26.879Z,28.60
2019-02-27T03:01:04.365Z,27.80
2019-02-27T03:03:55.885Z,25.73
2019-02-27T03:06:52.131Z,25.80
2019-02-27T03:09:30.376Z,27.57
2019-02-27T03:12:13.707Z,25.23
2019-02-27T03:14:52.975Z,28.80
2019-02-27T03:17:38.088Z,27.50
2019-02-27T03:20:21.572Z,28.40
2019-02-27T03:23:26.519Z,21.33
2019-02-27T03:26:09.888Z,31.17
2019-02-27T03:28:44.131Z,36.17
2019-02-27T03:31:19.278Z,21.57
2019-02-27T03:34:06.420Z,31.10
2019-02-27T03:36:45.346Z,32.97
2019-02-27T03:39:48.848Z,29.57
2019-02-27T03:42:26.323Z,34.53
2019-02-27T03:45:13.179Z,27.70
2019-02-27T03:47:56.626Z,22.17
2019-02-27T03:50:49.923Z,26.50
2019-02-27T03:53:39.331Z,20.80
2019-02-27T03:56:16.900Z,30.10
2019-02-27T03:58:51.160Z,24.33
2019-02-27T04:01:56.398Z,27.07
2019-02-27T04:04:31.009Z,24.57
2019-02-27T04:07:08.719Z,35.40
2019-02-27T04:09:37.133Z,38.30
2019-02-27T04:12:05.606Z,28.87
2019-02-27T04:14:40.408Z,29.93
2019-02-27T04:17:07.337Z,30.57
2019-02-27T04:19:39.289Z,28.07
2019-02-27T04:22:05.776Z,27.10
2019-02-27T04:24:34.291Z,25.30
2019-02-27T04:27:02.702Z,28.03
2019-02-27T04:29:31.152Z,20.53
2019-02-27T04:31:59.631Z,24.80
2019-02-27T04:34:28.114Z,25.50
2019-02-27T04:36:56.550Z,21.00
2019-02-27T04:39:24.971Z,27.87
2019-02-27T04:41:53.375Z,25.23
2019-02-27T04:44:21.815Z,23.63
2019-02-27T04:46:50.240Z,23.90
2019-02-27T04:49:20.358Z,31.27
2019-02-27T04:51:50.611Z,24.30
2019-02-27T04:54:19.006Z,25.03
2019-02-27T04:56:47.422Z,21.87
2019-02-27T04:59:18.763Z,20.37
2019-02-27T05:01:46.054Z,24.30
2019-02-27T05:04:14.486Z,20.10
2019-02-27T05:06:46.905Z,39.90
2019-02-27T05:09:13.092Z,26.50
2019-02-27T05:11:41.491Z,22.67
2019-02-27T05:14:09.994Z,15.60
2019-02-27T05:16:38.437Z,15.57
2019-02-27T05:19:06.863Z,20.20
2019-02-27T05:21:35.317Z,13.80
2019-02-27T05:24:05.179Z,16.13
2019-02-27T05:26:33.845Z,19.77
2019-02-27T05:29:02.289Z,20.77
2019-02-27T05:31:30.754Z,15.83
2019-02-27T05:33:59.159Z,16.20
2019-02-27T05:36:29.035Z,19.47
2019-02-27T05:38:57.695Z,16.60
2019-02-27T05:41:26.202Z,19.43
2019-02-27T05:43:54.640Z,16.53
2019-02-27T05:46:23.043Z,15.17
2019-02-27T05:48:53.329Z,22.90
2019-02-27T05:51:21.675Z,20.73
2019-02-27T05:53:50.178Z,23.40
2019-02-27T05:56:18.621Z,20.47
2019-02-27T05:58:47.045Z,19.20
2019-02-27T06:01:15.514Z,15.80
2019-02-27T06:03:43.967Z,17.43
2019-02-27T06:06:12.438Z,17.83
2019-02-27T06:08:41.022Z,14.90
2019-02-27T06:11:09.466Z,14.70
2019-02-27T06:13:37.874Z,23.97
2019-02-27T06:16:08.912Z,20.80
2019-02-27T06:18:36.396Z,12.53
2019-02-27T06:21:04.899Z,11.43
2019-02-27T06:23:35.366Z,13.43
2019-02-27T06:26:03.493Z,20.97
2019-02-27T06:28:31.931Z,15.67
2019-02-27T06:31:02.485Z,21.00
2019-02-27T06:33:30.411Z,11.23
2019-02-27T06:35:58.890Z,23.40
2019-02-27T06:38:27.294Z,18.90
2019-02-27T06:40:55.734Z,17.40
2019-02-27T06:43:27.190Z,14.87
2019-02-27T06:45:54.383Z,18.07
2019-02-27T06:48:23.099Z,14.00
2019-02-27T06:50:51.642Z,17.17
2019-02-27T06:53:20.120Z,19.93
2019-02-27T06:55:48.646Z,15.43
2019-02-27T06:58:17.193Z,15.70
2019-02-27T07:00:45.671Z,16.03
2019-02-27T07:03:14.102Z,17.27
2019-02-27T07:05:42.578Z,14.97
2019-02-27T07:08:10.982Z,19.17
2019-02-27T07:10:39.462Z,20.97
2019-02-27T07:13:07.943Z,19.80
2019-02-27T07:15:36.351Z,19.47
2019-02-27T07:18:07.233Z,20.87
2019-02-27T07:20:35.423Z,14.20
2019-02-27T07:23:03.827Z,18.77
2019-02-27T07:25:32.268Z,22.63
2019-02-27T07:28:00.797Z,15.23
2019-02-27T07:30:29.214Z,14.37
2019-02-27T07:32:57.718Z,20.30
2019-02-27T07:35:29.031Z,23.87
2019-02-27T07:37:56.303Z,16.13
2019-02-27T07:40:24.774Z,21.73
2019-02-27T07:42:53.191Z,19.37
2019-02-27T07:45:22.919Z,17.93
2019-02-27T07:47:51.566Z,26.63
2019-02-27T07:50:20.810Z,20.60
2019-02-27T07:52:49.219Z,23.67
2019-02-27T07:55:22.696Z,13.60
2019-02-27T07:57:48.645Z,15.93
2019-02-27T08:00:21.709Z,12.93
2019-02-27T08:02:50.155Z,20.20
2019-02-27T08:05:18.572Z,17.50
2019-02-27T08:07:49.233Z,16.70
2019-02-27T08:10:21.748Z,16.67
2019-02-27T08:12:50.321Z,12.13
2019-02-27T08:15:20.072Z,16.33
2019-02-27T08:17:48.600Z,14.37
2019-02-27T08:20:20.144Z,13.97
2019-02-27T08:22:49.294Z,14.57
2019-02-27T08:25:18.805Z,17.13
2019-02-27T08:27:47.273Z,16.57
2019-02-27T08:30:27.021Z,21.30
2019-02-27T08:32:55.421Z,18.63
2019-02-27T08:35:23.900Z,17.43
2019-02-27T08:38:01.900Z,21.77
2019-02-27T08:40:25.128Z,18.97
2019-02-27T08:42:52.595Z,15.87
2019-02-27T08:45:21.231Z,24.37
2019-02-27T08:47:49.707Z,29.17
2019-02-27T08:50:19.454Z,15.00
2019-02-27T08:52:51.553Z,14.43
2019-02-27T08:55:22.056Z,25.70
2019-02-27T08:57:50.023Z,22.97
2019-02-27T09:00:24.602Z,19.93
2019-02-27T09:02:55.321Z,20.50
2019-02-27T09:05:23.184Z,23.67
2019-02-27T09:07:51.732Z,21.57
2019-02-27T09:12:52.630Z,15.67
2019-02-27T09:15:21.065Z,16.10
2019-02-27T09:17:49.471Z,17.60
2019-02-27T09:20:21.725Z,15.60
2019-02-27T09:22:50.163Z,26.53
2019-02-27T09:25:23.438Z,16.60
2019-02-27T09:27:48.619Z,18.23
2019-02-27T09:30:22.131Z,18.93
2019-02-27T09:32:50.539Z,18.13
2019-02-27T09:35:19.017Z,22.13
2019-02-27T09:37:48.261Z,18.83
2019-02-27T09:40:29.712Z,23.20
2019-02-27T09:42:58.464Z,13.77
2019-02-27T09:45:28.644Z,19.53
2019-02-27T09:47:59.501Z,14.10
2019-02-27T09:50:32.162Z,19.57
2019-02-27T09:53:01.043Z,19.97
2019-02-27T09:55:30.635Z,14.53
2019-02-27T09:57:59.075Z,13.27
2019-02-27T10:00:35.909Z,17.93
2019-02-27T10:03:04.412Z,13.57
2019-02-27T10:05:36.253Z,25.17
2019-02-27T10:08:03.010Z,19.00
2019-02-27T10:10:31.468Z,15.40
2019-02-27T10:12:59.940Z,16.43
2019-02-27T10:15:28.621Z,15.07
2019-02-27T10:17:57.055Z,14.47
2019-02-27T10:20:25.501Z,12.43
2019-02-27T10:22:54.080Z,13.10
2019-02-27T10:25:22.705Z,20.10
2019-02-27T10:27:51.210Z,19.10
2019-02-27T10:30:19.646Z,13.73
2019-02-27T10:32:48.122Z,15.63
2019-02-27T10:35:16.729Z,11.30
2019-02-27T10:37:50.280Z,13.13
2019-02-27T10:40:17.882Z,12.73
2019-02-27T10:42:46.330Z,10.53
2019-02-27T10:45:15.446Z,16.80
2019-02-27T10:47:43.907Z,9.80
2019-02-27T10:50:15.909Z,9.40
2019-02-27T10:52:44.386Z,10.70
2019-02-27T10:55:18.490Z,9.73
2019-02-27T10:57:46.902Z,9.53
2019-02-27T11:00:32.456Z,11.30
2019-02-27T11:03:02.555Z,15.33
2019-02-27T11:05:36.794Z,12.20
2019-02-27T11:08:05.219Z,16.90
2019-02-27T11:10:35.197Z,13.50
2019-02-27T11:13:06.682Z,17.90
2019-02-27T11:15:33.715Z,20.47
2019-02-27T11:18:05.623Z,15.77
2019-02-27T11:20:32.314Z,13.07
2019-02-27T11:23:00.802Z,18.03
2019-02-27T11:25:32.383Z,16.97
2019-02-27T11:28:00.898Z,16.47
2019-02-27T11:30:37.144Z,13.47
2019-02-27T11:33:05.895Z,14.33
2019-02-27T11:35:35.292Z,25.07
2019-02-27T11:38:03.814Z,16.60
2019-02-27T11:40:32.321Z,56.43
2019-02-27T11:43:01.178Z,21.30
2019-02-27T11:45:29.647Z,29.83
2019-02-27T11:47:58.101Z,27.90
2019-02-27T11:50:26.577Z,15.10
2019-02-27T11:52:55.139Z,21.33
2019-02-27T11:55:24.551Z,20.03
2019-02-27T11:57:53.173Z,16.00
2019-02-27T12:00:28.098Z,9.20
2019-02-27T12:02:56.946Z,15.77
2019-02-27T12:05:30.772Z,9.50
2019-02-27T12:07:56.662Z,11.13
2019-02-27T12:10:29.917Z,11.70
2019-02-27T12:13:00.874Z,7.53
2019-02-27T12:15:28.626Z,9.93
2019-02-27T12:17:59.968Z,12.97
2019-02-27T12:20:27.154Z,8.23
2019-02-27T12:22:55.662Z,17.53
2019-02-27T12:25:26.835Z,16.60
2019-02-27T12:27:55.952Z,15.77
2019-02-27T12:30:26.912Z,17.00
2019-02-27T12:32:56.727Z,11.23
2019-02-27T12:35:32.990Z,12.23
2019-02-27T12:38:01.413Z,14.50
2019-02-27T12:40:29.824Z,12.73
2019-02-27T12:42:58.254Z,16.47
2019-02-27T12:45:29.850Z,15.10
2019-02-27T12:47:58.514Z,17.23
2019-02-27T12:50:31.150Z,11.73
2019-02-27T12:52:58.111Z,10.20
2019-02-27T12:55:27.877Z,12.63
2019-02-27T12:57:56.315Z,13.67
2019-02-27T13:00:34.247Z,15.77
2019-02-27T13:03:02.764Z,20.97
2019-02-27T13:05:31.180Z,16.07
2019-02-27T13:07:59.594Z,12.57
2019-02-27T13:10:33.171Z,10.30
2019-02-27T13:12:58.518Z,9.73
2019-02-27T13:15:28.068Z,10.13
2019-02-27T13:17:57.901Z,13.77
2019-02-27T13:20:31.874Z,13.13
2019-02-27T13:23:03.871Z,14.70
2019-02-27T13:25:30.545Z,13.70
2019-02-27T13:27:58.901Z,16.10
2019-02-27T13:30:28.783Z,13.13
2019-02-27T13:33:00.642Z,14.47
2019-02-27T13:35:28.678Z,15.23
2019-02-27T13:37:57.382Z,12.53
2019-02-27T13:40:27.126Z,13.60
2019-02-27T13:42:55.614Z,16.93
2019-02-27T13:45:28.370Z,20.80
2019-02-27T13:47:58.392Z,20.10
2019-02-27T13:50:27.079Z,13.47
2019-02-27T13:52:55.618Z,18.00
2019-02-27T13:55:24.092Z,13.60
2019-02-27T13:57:52.534Z,13.00
2019-02-27T14:00:26.815Z,18.60
2019-02-27T14:02:55.371Z,13.83
2019-02-27T14:05:23.965Z,17.60
2019-02-27T14:07:57.249Z,15.87
2019-02-27T14:10:31.126Z,19.13
2019-02-27T14:12:59.610Z,17.50
2019-02-27T14:15:28.270Z,16.97
2019-02-27T14:17:56.763Z,17.33
2019-02-27T14:20:26.963Z,20.57
2019-02-27T14:22:55.334Z,15.50
2019-02-27T14:25:32.367Z,18.43
2019-02-27T14:27:58.720Z,14.13
2019-02-27T14:30:44.666Z,19.60
2019-02-27T14:33:13.096Z,18.03
2019-02-27T14:35:41.506Z,17.63
2019-02-27T14:38:10.010Z,22.30
2019-02-27T14:40:41.109Z,19.83
2019-02-27T14:43:08.602Z,18.43
2019-02-27T14:45:39.499Z,16.80
2019-02-27T14:48:07.110Z,23.70
2019-02-27T14:50:35.611Z,14.10
2019-02-27T14:53:04.098Z,13.90
2019-02-27T14:55:36.264Z,16.80
2019-02-27T14:58:02.596Z,18.17
2019-02-27T15:00:39.839Z,15.13
2019-02-27T15:03:06.346Z,19.43
2019-02-27T15:05:36.593Z,16.20
2019-02-27T15:08:04.970Z,15.17
2019-02-27T15:10:33.474Z,16.20
2019-02-27T15:13:01.961Z,20.70
2019-02-27T15:15:33.753Z,17.17
2019-02-27T15:18:02.200Z,23.53
2019-02-27T15:20:34.626Z,18.03
2019-02-27T15:23:03.322Z,18.60
2019-02-27T15:25:31.742Z,16.07
2019-02-27T15:28:00.183Z,14.37
2019-02-27T15:30:30.225Z,17.10
2019-02-27T15:33:03.562Z,17.77
2019-02-27T15:35:28.874Z,14.70
2019-02-27T15:37:57.287Z,21.47
2019-02-27T15:40:29.592Z,15.53
2019-02-27T15:42:57.314Z,14.07
2019-02-27T15:45:26.887Z,21.10
2019-02-27T15:47:55.302Z,17.20
2019-02-27T15:50:32.055Z,22.33
2019-02-27T15:53:00.546Z,15.27
2019-02-27T15:55:32.864Z,17.33
2019-02-27T15:57:59.136Z,23.83
2019-02-27T16:00:28.366Z,15.87
2019-02-27T16:02:56.858Z,22.03
2019-02-27T16:05:30.065Z,19.67
2019-02-27T16:07:55.443Z,23.90
2019-02-27T16:10:26.374Z,16.27
2019-02-27T16:12:59.569Z,26.97
2019-02-27T16:15:24.901Z,19.87
2019-02-27T16:17:53.341Z,40.47
2019-02-27T16:20:23.355Z,20.27
2019-02-27T16:22:51.877Z,21.33
2019-02-27T16:25:22.915Z,23.20
2019-02-27T16:27:51.330Z,22.57
2019-02-27T16:30:36.987Z,18.20
2019-02-27T16:33:04.170Z,15.37
2019-02-27T16:35:32.659Z,14.43
2019-02-27T16:38:01.199Z,15.77
2019-02-27T16:40:30.524Z,19.77
2019-02-27T16:42:58.980Z,20.10
2019-02-27T16:45:35.907Z,13.13
2019-02-27T16:48:03.277Z,21.97
2019-02-27T16:50:32.115Z,15.60
2019-02-27T16:53:00.524Z,14.63
2019-02-27T16:55:29.366Z,13.83
2019-02-27T16:57:57.936Z,14.97
2019-02-27T17:00:32.443Z,13.30
2019-02-27T17:03:00.815Z,15.03
2019-02-27T17:05:29.296Z,13.83
2019-02-27T17:08:02.245Z,14.00
2019-02-27T17:10:32.553Z,16.90
2019-02-27T17:13:01.054Z,20.33
2019-02-27T17:15:34.780Z,15.30
2019-02-27T17:17:59.687Z,21.47
2019-02-27T17:20:28.525Z,19.40
2019-02-27T17:22:56.987Z,17.53
2019-02-27T17:25:29.045Z,19.30
2019-02-27T17:27:55.595Z,17.70
2019-02-27T17:30:36.609Z,19.50
2019-02-27T17:33:04.351Z,20.80
2019-02-27T17:35:32.607Z,20.53
2019-02-27T17:38:01.126Z,15.87
2019-02-27T17:40:29.584Z,12.60
2019-02-27T17:42:58.014Z,19.40
2019-02-27T17:45:28.398Z,18.87
2019-02-27T17:47:56.879Z,15.03
2019-02-27T17:50:28.462Z,16.27
2019-02-27T17:52:55.375Z,23.93
2019-02-27T17:55:23.818Z,17.47
2019-02-27T17:57:55.285Z,16.10
2019-02-27T18:00:31.321Z,18.03
2019-02-27T18:02:59.766Z,21.90
2019-02-27T18:05:28.178Z,20.17
2019-02-27T18:07:56.592Z,20.00
2019-02-27T18:10:25.027Z,29.23
2019-02-27T18:12:53.430Z,34.20
2019-02-27T18:15:22.859Z,25.27
2019-02-27T18:17:51.374Z,28.13
2019-02-27T18:20:24.142Z,22.03
2019-02-27T18:22:50.347Z,18.03
2019-02-27T18:25:21.050Z,20.67
2019-02-27T18:27:49.234Z,26.97
2019-02-27T18:30:23.028Z,32.93
2019-02-27T18:32:51.571Z,25.03
2019-02-27T18:35:20.355Z,27.93
2019-02-27T18:37:52.962Z,24.37
2019-02-27T18:40:19.839Z,20.73
2019-02-27T18:42:48.396Z,22.83
2019-02-27T18:45:22.904Z,26.13
2019-02-27T18:47:51.406Z,18.40
2019-02-27T18:50:19.809Z,20.47
2019-02-27T18:52:49.502Z,34.07
2019-02-27T18:55:18.057Z,28.33
2019-02-27T18:57:47.526Z,23.57
2019-02-27T19:00:24.217Z,23.10
2019-02-27T19:02:55.882Z,20.60
2019-02-27T19:05:24.304Z,30.67
2019-02-27T19:07:55.089Z,23.97
2019-02-27T19:10:23.874Z,25.27
2019-02-27T19:12:52.394Z,22.43
2019-02-27T19:15:23.606Z,19.13
2019-02-27T19:17:52.120Z,28.83
2019-02-27T19:20:24.843Z,22.47
2019-02-27T19:22:53.728Z,27.93
2019-02-27T19:25:22.226Z,24.90
2019-02-27T19:27:50.774Z,25.07
2019-02-27T19:30:19.455Z,26.33
2019-02-27T19:32:48.566Z,24.77
2019-02-27T19:35:21.123Z,24.30
2019-02-27T19:37:49.139Z,24.10
2019-02-27T19:40:19.746Z,19.10
2019-02-27T19:42:51.021Z,16.97
2019-02-27T19:45:19.527Z,22.87
2019-02-27T19:47:49.642Z,18.93
2019-02-27T19:50:18.380Z,18.00
2019-02-27T19:52:46.869Z,17.23
2019-02-27T19:55:15.346Z,20.97
2019-02-27T19:57:43.768Z,23.07
2019-02-27T20:00:15.543Z,15.63
2019-02-27T20:02:43.946Z,12.33
2019-02-27T20:05:12.423Z,21.93
2019-02-27T20:07:40.919Z,21.27
2019-02-27T20:10:17.868Z,14.97
2019-02-27T20:12:52.143Z,17.97
2019-02-27T20:15:23.328Z,18.53
2019-02-27T20:17:51.574Z,18.93
2019-02-27T20:20:20.890Z,13.90
2019-02-27T20:22:50.343Z,21.20
2019-02-27T20:25:21.095Z,21.83
2019-02-27T20:27:49.615Z,12.60
2019-02-27T20:30:20.554Z,13.70
2019-02-27T20:32:49.373Z,17.63
2019-02-27T20:35:20.705Z,21.37
2019-02-27T20:37:47.971Z,16.93
2019-02-27T20:40:17.546Z,19.07
2019-02-27T20:42:49.964Z,19.13
2019-02-27T20:45:17.834Z,14.87
2019-02-27T20:47:46.282Z,18.00
2019-02-27T20:50:35.971Z,17.60
2019-02-27T20:53:06.609Z,22.77
2019-02-27T20:55:35.097Z,19.90
2019-02-27T20:58:03.591Z,19.77
2019-02-27T21:00:35.771Z,19.00
2019-02-27T21:03:02.688Z,23.50
2019-02-27T21:05:31.754Z,22.47
2019-02-27T21:08:01.969Z,23.50
2019-02-27T21:10:32.150Z,21.00
2019-02-27T21:13:00.631Z,15.00
2019-02-27T21:15:32.615Z,19.63
2019-02-27T21:17:59.690Z,18.90
2019-02-27T21:20:28.138Z,15.07
2019-02-27T21:22:59.911Z,18.33
2019-02-27T21:25:26.813Z,19.47
2019-02-27T21:27:55.215Z,17.57
2019-02-27T21:30:24.394Z,21.60
2019-02-27T21:32:52.790Z,19.50
2019-02-27T21:35:21.295Z,15.67
2019-02-27T21:37:51.023Z,22.40
2019-02-27T21:40:20.125Z,20.47
2019-02-27T21:42:50.897Z,26.77
2019-02-27T21:45:21.058Z,22.40
2019-02-27T21:47:51.905Z,25.97
2019-02-27T21:50:21.907Z,20.53
2019-02-27T21:52:54.230Z,19.87
2019-02-27T21:55:20.835Z,22.40
2019-02-27T21:57:49.296Z,21.87
2019-02-27T22:00:26.212Z,24.30
2019-02-27T22:02:55.884Z,23.67
2019-02-27T22:05:24.291Z,22.40
2019-02-27T22:07:52.816Z,23.97
2019-02-27T22:10:21.327Z,21.27
2019-02-27T22:12:49.809Z,27.87
2019-02-27T22:15:28.839Z,20.87
2019-02-27T22:17:57.413Z,27.80
2019-02-27T22:20:26.832Z,32.53
2019-02-27T22:22:55.543Z,23.97
2019-02-27T22:25:23.988Z,25.40
2019-02-27T22:27:52.465Z,26.43
2019-02-27T22:30:22.726Z,36.50
2019-02-27T22:32:51.134Z,29.43
2019-02-27T22:35:19.650Z,31.17
2019-02-27T22:37:51.035Z,24.23
2019-02-27T22:40:19.567Z,35.03
2019-02-27T22:42:48.646Z,25.50
2019-02-27T22:45:18.831Z,27.60
2019-02-27T22:47:47.687Z,29.80
2019-02-27T22:50:18.562Z,28.13
2019-02-27T22:52:47.009Z,29.10
2019-02-27T22:55:15.482Z,30.37
2019-02-27T22:57:44.070Z,24.33
2019-02-27T23:00:42.984Z,38.40
2019-02-27T23:03:10.370Z,36.07
2019-02-27T23:05:39.161Z,37.67
2019-02-27T23:08:07.723Z,37.13
2019-02-27T23:10:36.218Z,37.67
2019-02-27T23:13:04.638Z,35.70
2019-02-27T23:15:33.154Z,34.00
2019-02-27T23:18:02.604Z,25.97
2019-02-27T23:20:31.870Z,35.57
2019-02-27T23:23:02.781Z,33.53
2019-02-27T23:25:30.366Z,36.07
2019-02-27T23:28:01.041Z,23.77
2019-02-27T23:30:28.887Z,33.57
2019-02-27T23:32:59.418Z,34.00
2019-02-27T23:35:27.450Z,29.23
2019-02-27T23:37:55.938Z,33.13
2019-02-27T23:40:24.357Z,30.40
2019-02-27T23:42:52.839Z,33.07
2019-02-27T23:45:21.351Z,37.70
2019-02-27T23:47:49.824Z,40.13
2019-02-27T23:50:18.308Z,31.33
2019-02-27T23:52:46.807Z,30.53
2019-02-27T23:55:15.351Z,27.30
2019-02-27T23:57:43.890Z,23.97
